Accueil en_GB de_DE fr_FR  

14.12.17 19:03 UTC   Mobile
Tarifs
FAQ (Foire aux questions)

 
TopMeteo
Nom d'utilisateur Mot de passe  



La recherche de l'itinéraire n'est disponible qu'aux utilisateurs avec un abonnement actif.

Nous vous affichons les endroits standard. Pour mieux comprendre les rapports de temps de METAR cf. Wikipedia.


EDAH Heringsdorf TAF/S

15:20Z
141654Z 1416/1424 CNL
TEMPO 1416/1421 23015G25KT 4500 -SHRASN BKN015TCU
25011KT 9999 BKN016 03/01 Q0988
EDDG Münster Osnabrück Flughafen TAF/L


18:50Z
141700Z 1418/1518 20005KT 9999 BKN020
TEMPO 1419/1423 BKN012 ; BECMG 1423/1501 BKN007 ; TEMPO 1506/1510 3500 BR BKN004
BECMG 1511/1514 26004KT BKN012 ; TEMPO 1514/1518 BKN015
20005KT 9999 BKN018 03/01 Q0991 NOSIG
KBUF Greater Buffalo International TAF/L




17:54Z
141739Z 1418/1518 28008KT P6SM BKN025
FM142000 27008KT P6SM BKN040
FM150000 VRB03KT P6SM SCT040
FM151300 23006KT 2SM -SHSN OVC025
FM151700 21010KT P6SM OVC035
28009KT 10SM SCT030 BKN200 M08/M15 A2993 RMK AO2 SNE22 SLP150 4/005 933004 P0000 60000 T10831150 11083 21106 51019
KPIT Greater Pittsburgh International TAF/L



17:51Z
141724Z 1418/1524 33008KT P6SM VCSH BKN030
FM142200 30003KT P6SM BKN035
FM151400 21003KT P6SM BKN060
FM151700 23006KT P6SM VCSH OVC050
35009KT 10SM BKN032 BKN055 BKN250 M03/M10 A2993 RMK AO2 SLP158 60000 T10281100 11028 21044 50013
KAXH Houston Southwest 18:35Z AUTO 00000KT 10SM SCT035 17/08 A2998 RMK AO2 T01710079
LIMC Milano/Malpensa TAF/L

18:50Z
141700Z 1418/1524 VRB05KT CAVOK
TEMPO 1503/1507 3000 BR
13002KT CAVOK 01/M01 Q1003 NOSIG
LOWK Klagenfurt-Flughafen TAF/L

18:50Z
AMD 141822Z 1418/1518 VRB02KT 9999 SCT040 BKN050 TX03/1515Z TNM01/1504Z
TEMPO 1418/1422 2000 -SHRA BR SCT004 ; TEMPO 1422/1507 2500 FZBCFG ; TEMPO 1507/1518 -SHRASN
35003KT 330V030 6000 FEW004 SCT040 BKN060 01/01 Q1004 R10L/29//95 TEMPO 4000 BR
FYWB Walvis Bay 18:00Z AUTO 33004KT //// // ////// 15/11 Q1013
FBFT Francistown TAF/S
18:00Z
141200Z 1415/1424 13008KT 9999 SCT030 FEW040CB
31004KT 9999 FEW025 FEW030CB SCT065 27/15 Q1015

Data source: ftp://tgftp.nws.noaa.gov/SL.us008001
"Data is provided as a public service by NOAA's National Weather Service (NWS) and is considered public information and may be distributed or copied."
 
 
CGV
Mentions légales
Qui sommes nous?
Simulation numérique: 12 UTC - Prévision: Ma 19.12.17 23:00